createdAt,value
2019-05-30T00:00:52.433Z,14.40
2019-05-30T00:03:22.776Z,14.20
2019-05-30T00:05:54.272Z,14.10
2019-05-30T00:08:24.897Z,14.20
2019-05-30T00:10:56.514Z,14.20
2019-05-30T00:13:27.376Z,14.20
2019-05-30T00:15:59.246Z,14.20
2019-05-30T00:18:29.531Z,14.20
2019-05-30T00:21:00.817Z,14.20
2019-05-30T00:23:31.250Z,14.20
2019-05-30T00:26:01.582Z,14.20
2019-05-30T00:28:31.897Z,14.20
2019-05-30T00:31:02.559Z,14.20
2019-05-30T00:33:33.040Z,14.40
2019-05-30T00:36:03.910Z,14.30
2019-05-30T00:38:34.387Z,14.30
2019-05-30T00:41:04.669Z,14.40
2019-05-30T00:43:35.252Z,14.40
2019-05-30T00:46:06.267Z,14.40
2019-05-30T00:48:36.720Z,14.50
2019-05-30T00:51:09.604Z,14.50
2019-05-30T00:53:39.891Z,14.50
2019-05-30T00:56:10.144Z,14.50
2019-05-30T00:58:40.423Z,14.40
2019-05-30T01:01:10.697Z,14.40
2019-05-30T01:03:40.938Z,14.40
2019-05-30T01:06:11.225Z,14.40
2019-05-30T01:08:41.574Z,14.50
2019-05-30T01:11:11.845Z,14.50
2019-05-30T01:13:42.205Z,14.50
2019-05-30T01:16:12.658Z,14.50
2019-05-30T01:18:42.916Z,14.40
2019-05-30T01:21:13.182Z,14.50
2019-05-30T01:23:46.304Z,14.40
2019-05-30T01:26:16.635Z,14.30
2019-05-30T01:28:47.017Z,14.40
2019-05-30T01:31:17.868Z,14.30
2019-05-30T01:33:48.257Z,14.30
2019-05-30T01:36:18.497Z,14.30
2019-05-30T01:38:48.808Z,14.20
2019-05-30T01:41:19.074Z,14.20
2019-05-30T01:43:50.331Z,14.20
2019-05-30T01:46:20.608Z,14.10
2019-05-30T01:48:50.953Z,14.10
2019-05-30T01:51:22.746Z,14.10
2019-05-30T01:53:53.285Z,14.20
2019-05-30T01:56:23.582Z,14.10
2019-05-30T01:58:53.849Z,14.10
2019-05-30T02:01:25.661Z,14.20
2019-05-30T02:03:56.198Z,14.10
2019-05-30T02:06:26.382Z,14.00
2019-05-30T02:09:03.007Z,13.90
2019-05-30T02:11:34.806Z,13.90
2019-05-30T02:14:09.794Z,14.00
2019-05-30T02:16:40.389Z,13.90
2019-05-30T02:19:10.833Z,13.80
2019-05-30T02:21:41.087Z,13.70
2019-05-30T02:24:12.269Z,13.70
2019-05-30T02:26:42.831Z,13.70
2019-05-30T02:29:13.102Z,13.80
2019-05-30T02:31:43.368Z,13.70
2019-05-30T02:34:13.651Z,13.60
2019-05-30T02:36:43.995Z,13.50
2019-05-30T02:39:14.338Z,13.50
2019-05-30T02:41:44.684Z,13.50
2019-05-30T02:44:14.966Z,13.60
2019-05-30T02:46:45.211Z,13.70
2019-05-30T02:49:16.038Z,13.60
2019-05-30T02:51:46.287Z,13.50
2019-05-30T02:54:16.648Z,13.40
2019-05-30T02:56:47.877Z,13.40
2019-05-30T02:59:18.256Z,13.30
2019-05-30T03:02:01.135Z,13.20
2019-05-30T03:04:20.627Z,13.20
2019-05-30T03:06:50.941Z,13.10
2019-05-30T03:09:21.515Z,13.10
2019-05-30T03:11:52.177Z,13.20
2019-05-30T03:14:23.875Z,13.10
2019-05-30T03:16:54.165Z,13.10
2019-05-30T03:19:25.350Z,13.10
2019-05-30T03:21:55.565Z,13.20
2019-05-30T03:24:25.719Z,13.30
2019-05-30T03:26:56.071Z,13.20
2019-05-30T03:29:26.334Z,13.30
2019-05-30T03:31:56.600Z,13.30
2019-05-30T03:34:29.158Z,13.30
2019-05-30T03:36:58.930Z,13.30
2019-05-30T03:39:29.125Z,13.40
2019-05-30T03:41:59.447Z,13.40
2019-05-30T03:44:30.671Z,13.40
2019-05-30T03:47:04.065Z,13.50
2019-05-30T03:49:37.235Z,13.60
2019-05-30T03:52:12.016Z,13.60
2019-05-30T03:54:42.013Z,13.40
2019-05-30T03:57:21.149Z,13.30
2019-05-30T04:00:00.287Z,13.30
2019-05-30T04:02:54.610Z,13.40
2019-05-30T04:05:13.155Z,13.40
2019-05-30T04:07:46.121Z,13.50
2019-05-30T04:10:19.885Z,13.60
2019-05-30T04:13:14.539Z,13.70
2019-05-30T04:15:45.356Z,13.80
2019-05-30T04:18:16.462Z,14.20
2019-05-30T04:20:53.234Z,14.20
2019-05-30T04:23:23.595Z,14.20
2019-05-30T04:25:53.972Z,14.30
2019-05-30T04:28:24.283Z,14.40
2019-05-30T04:30:54.625Z,14.40
2019-05-30T04:33:32.302Z,14.30
2019-05-30T04:35:56.808Z,14.30
2019-05-30T04:38:27.138Z,14.40
2019-05-30T04:40:57.575Z,14.20
2019-05-30T04:43:27.858Z,14.20
2019-05-30T04:45:58.191Z,14.20
2019-05-30T04:48:28.386Z,14.00
2019-05-30T04:50:58.725Z,14.20
2019-05-30T04:53:29.062Z,14.40
2019-05-30T04:55:59.378Z,14.70
2019-05-30T04:58:29.678Z,14.90
2019-05-30T05:00:59.936Z,15.10
2019-05-30T05:03:45.302Z,15.30
2019-05-30T05:06:02.121Z,15.80
2019-05-30T05:08:32.461Z,17.30
2019-05-30T05:11:02.716Z,18.80
2019-05-30T05:13:33.027Z,20.00
2019-05-30T05:16:21.387Z,20.50
2019-05-30T05:18:35.293Z,21.90
2019-05-30T05:21:05.642Z,22.50
2019-05-30T05:23:35.974Z,22.20
2019-05-30T05:26:06.443Z,23.20
2019-05-30T05:28:38.222Z,23.40
2019-05-30T05:31:08.471Z,22.40
2019-05-30T05:33:38.644Z,22.30
2019-05-30T05:36:08.994Z,22.80
2019-05-30T05:38:39.240Z,23.20
2019-05-30T05:41:09.468Z,23.20
2019-05-30T05:43:39.638Z,22.00
2019-05-30T05:46:09.748Z,22.30
2019-05-30T05:48:40.058Z,22.30
2019-05-30T05:51:10.361Z,22.90
2019-05-30T05:53:42.012Z,24.00
2019-05-30T05:56:12.307Z,23.50
2019-05-30T05:58:42.515Z,23.10
2019-05-30T06:01:12.742Z,23.10
2019-05-30T06:03:43.003Z,22.90
2019-05-30T06:06:13.156Z,22.60
2019-05-30T06:08:43.369Z,22.10
2019-05-30T06:11:13.588Z,21.20
2019-05-30T06:13:43.821Z,21.70
2019-05-30T06:16:14.000Z,22.20
2019-05-30T06:18:44.314Z,22.00
2019-05-30T06:21:14.626Z,22.30
2019-05-30T06:23:45.751Z,21.60
2019-05-30T06:26:17.673Z,22.30
2019-05-30T06:28:48.117Z,22.20
2019-05-30T06:31:18.415Z,22.30
2019-05-30T06:33:48.679Z,21.50
2019-05-30T08:36:18.512Z,22.70
2019-05-30T08:38:48.844Z,22.40
2019-05-30T08:41:19.022Z,22.20
2019-05-30T08:43:49.240Z,22.60
2019-05-30T08:46:20.453Z,22.10
2019-05-30T08:48:50.611Z,22.00
2019-05-30T08:51:20.935Z,21.80
2019-05-30T08:53:50.997Z,21.80
2019-05-30T08:56:21.153Z,21.80
2019-05-30T08:58:51.252Z,22.30
2019-05-30T09:01:21.388Z,22.30
2019-05-30T09:03:51.400Z,22.50
2019-05-30T09:06:21.542Z,23.00
2019-05-30T09:08:51.567Z,23.40
2019-05-30T09:11:21.700Z,23.50
2019-05-30T09:13:51.854Z,23.40
2019-05-30T09:16:21.927Z,22.20
2019-05-30T09:18:52.133Z,22.20
2019-05-30T09:21:22.282Z,22.30
2019-05-30T09:23:52.615Z,22.60
2019-05-30T09:26:23.203Z,22.80
2019-05-30T09:28:53.423Z,22.50
2019-05-30T09:31:23.640Z,22.90
2019-05-30T09:33:53.783Z,23.30
2019-05-30T09:36:24.077Z,24.10
2019-05-30T09:38:54.228Z,23.60
2019-05-30T09:41:24.518Z,23.50
2019-05-30T09:43:54.805Z,23.30
2019-05-30T09:46:24.959Z,23.70
2019-05-30T09:48:55.174Z,23.60
2019-05-30T09:51:25.418Z,23.40
2019-05-30T09:53:55.703Z,24.10
2019-05-30T09:56:25.783Z,24.40
2019-05-30T09:58:56.093Z,24.30
2019-05-30T10:01:26.384Z,24.10
2019-05-30T10:03:56.541Z,23.70
2019-05-30T10:06:29.990Z,23.30
2019-05-30T10:08:58.433Z,23.70
2019-05-30T10:11:28.594Z,23.50
2019-05-30T10:14:00.270Z,23.60
2019-05-30T10:16:31.584Z,23.70
2019-05-30T10:19:01.727Z,23.40
2019-05-30T10:21:31.907Z,23.70
2019-05-30T10:24:01.972Z,23.80
2019-05-30T10:26:32.045Z,24.00
2019-05-30T10:29:02.203Z,23.50
2019-05-30T10:31:32.423Z,23.60
2019-05-30T10:34:02.556Z,23.60
2019-05-30T10:36:43.893Z,23.50
2019-05-30T10:39:07.114Z,23.70
2019-05-30T10:41:37.265Z,24.30
2019-05-30T10:44:07.423Z,24.30
2019-05-30T10:46:37.565Z,24.20
2019-05-30T10:49:07.789Z,24.50
2019-05-30T10:51:37.859Z,24.90
2019-05-30T10:54:08.016Z,24.80
2019-05-30T10:56:38.017Z,24.80
2019-05-30T10:59:08.308Z,24.30
2019-05-30T11:01:38.528Z,24.40
2019-05-30T11:04:08.814Z,24.50
2019-05-30T11:06:41.971Z,24.20
2019-05-30T11:09:15.352Z,24.40
2019-05-30T11:11:46.606Z,24.40
2019-05-30T11:14:16.913Z,24.80
2019-05-30T11:16:47.065Z,24.40
2019-05-30T11:19:18.539Z,24.80
2019-05-30T11:21:49.684Z,25.20
2019-05-30T11:24:21.246Z,24.90
2019-05-30T11:26:53.463Z,24.90
2019-05-30T11:29:23.156Z,24.30
2019-05-30T11:31:53.386Z,23.70
2019-05-30T11:34:24.611Z,23.50
2019-05-30T11:36:55.124Z,23.30
2019-05-30T11:39:25.338Z,23.30
2019-05-30T11:41:55.411Z,23.10
2019-05-30T11:44:25.558Z,23.20
2019-05-30T11:46:55.720Z,23.30
2019-05-30T11:49:25.934Z,23.40
2019-05-30T11:51:56.101Z,22.90
2019-05-30T11:54:26.327Z,22.90
2019-05-30T11:56:56.409Z,22.70
2019-05-30T11:59:26.694Z,22.70
2019-05-30T12:01:56.909Z,22.60
2019-05-30T12:04:26.972Z,22.50
2019-05-30T12:06:57.134Z,22.20
2019-05-30T12:09:28.282Z,22.20
2019-05-30T12:11:59.251Z,22.20
2019-05-30T12:14:29.769Z,22.00
2019-05-30T12:16:59.914Z,22.00
2019-05-30T12:19:30.143Z,22.10
2019-05-30T12:22:00.301Z,22.00
2019-05-30T12:24:30.523Z,22.00
2019-05-30T12:27:00.710Z,22.00
2019-05-30T12:29:30.873Z,22.10
2019-05-30T12:32:02.212Z,22.30
2019-05-30T12:34:32.984Z,22.00
2019-05-30T12:37:03.124Z,21.70
2019-05-30T12:39:33.353Z,21.90
2019-05-30T12:42:03.756Z,22.10
2019-05-30T12:44:34.022Z,22.30
2019-05-30T12:47:04.161Z,22.50
2019-05-30T12:49:34.271Z,22.40
2019-05-30T12:52:05.886Z,22.60
2019-05-30T12:54:36.137Z,22.30
2019-05-30T12:57:07.060Z,22.50
2019-05-30T12:59:37.283Z,22.60
2019-05-30T13:02:07.423Z,22.80
2019-05-30T13:04:37.579Z,23.20
2019-05-30T13:07:07.832Z,23.70
2019-05-30T13:09:38.029Z,23.70
2019-05-30T13:12:08.328Z,24.20
2019-05-30T13:14:39.373Z,24.20
2019-05-30T13:17:10.277Z,24.40
2019-05-30T13:19:40.497Z,24.10
2019-05-30T13:22:10.639Z,24.20
2019-05-30T13:24:40.860Z,23.90
2019-05-30T13:27:10.860Z,23.90
2019-05-30T13:29:41.021Z,23.60
2019-05-30T13:32:11.085Z,23.30
2019-05-30T13:34:41.317Z,23.10
2019-05-30T13:37:11.516Z,22.40
2019-05-30T13:39:41.593Z,22.00
2019-05-30T13:42:11.812Z,22.10
2019-05-30T13:44:41.893Z,22.20
2019-05-30T13:47:11.901Z,22.10
2019-05-30T13:49:42.064Z,22.10
2019-05-30T13:52:12.199Z,22.20
2019-05-30T13:54:42.286Z,22.40
2019-05-30T13:57:12.437Z,22.60
2019-05-30T13:59:42.511Z,22.50
2019-05-30T14:02:12.614Z,22.50
2019-05-30T14:04:42.812Z,22.70
2019-05-30T14:07:12.986Z,22.90
2019-05-30T14:09:43.192Z,22.90
2019-05-30T14:12:13.269Z,23.30
2019-05-30T14:14:43.424Z,23.20
2019-05-30T14:17:13.784Z,23.80
2019-05-30T14:19:44.014Z,23.30
2019-05-30T14:22:14.156Z,23.50
2019-05-30T14:24:44.314Z,23.30
2019-05-30T14:27:14.520Z,23.90
2019-05-30T14:29:44.605Z,23.90
2019-05-30T14:32:14.693Z,24.00
2019-05-30T14:34:44.868Z,24.30
2019-05-30T14:37:15.013Z,24.60
2019-05-30T14:39:45.083Z,24.50
2019-05-30T14:42:15.242Z,24.30
2019-05-30T14:44:45.413Z,24.00
2019-05-30T14:47:16.834Z,24.30
2019-05-30T14:49:47.228Z,23.90
2019-05-30T14:52:17.379Z,24.10
2019-05-30T14:54:47.525Z,24.30
2019-05-30T14:57:17.630Z,24.40
2019-05-30T14:59:47.760Z,24.30
2019-05-30T15:02:17.927Z,24.70
2019-05-30T15:04:48.116Z,24.20
2019-05-30T15:07:18.204Z,24.10
2019-05-30T15:09:48.209Z,24.00
2019-05-30T15:12:18.436Z,23.80
2019-05-30T15:14:48.584Z,23.60
2019-05-30T15:17:18.826Z,23.10
2019-05-30T15:19:49.001Z,23.00
2019-05-30T15:22:19.098Z,22.80
2019-05-30T15:24:49.315Z,23.30
2019-05-30T15:27:20.887Z,23.60
2019-05-30T15:29:52.244Z,24.40
2019-05-30T15:32:22.456Z,24.80
2019-05-30T15:34:52.686Z,24.90
2019-05-30T15:37:22.761Z,24.00
2019-05-30T15:39:52.911Z,23.00
2019-05-30T15:42:22.985Z,22.40
2019-05-30T15:44:53.002Z,22.00
2019-05-30T15:47:23.078Z,22.30
2019-05-30T15:49:53.157Z,22.60
2019-05-30T15:52:23.292Z,22.50
2019-05-30T15:54:53.395Z,22.00
2019-05-30T15:57:23.556Z,21.40
2019-05-30T15:59:53.705Z,21.10
2019-05-30T16:02:23.927Z,20.90
2019-05-30T16:04:53.930Z,20.60
2019-05-30T16:07:24.084Z,20.50
2019-05-30T16:09:54.227Z,20.40
2019-05-30T16:12:24.245Z,20.50
2019-05-30T16:14:54.373Z,20.40
2019-05-30T16:17:24.611Z,20.20
2019-05-30T16:19:54.739Z,20.00
2019-05-30T16:22:24.840Z,19.90
2019-05-30T16:24:54.969Z,19.90
2019-05-30T16:27:26.090Z,19.90
2019-05-30T16:29:56.200Z,19.80
2019-05-30T16:32:26.278Z,19.80
2019-05-30T16:34:56.466Z,19.80
2019-05-30T16:37:26.685Z,19.90
2019-05-30T16:40:06.089Z,19.90
2019-05-30T16:42:28.591Z,19.80
2019-05-30T16:44:58.749Z,19.80
2019-05-30T16:47:28.987Z,19.70
2019-05-30T16:49:58.993Z,19.60
2019-05-30T16:52:29.262Z,19.50
2019-05-30T16:54:59.409Z,19.50
2019-05-30T16:57:29.620Z,19.40
2019-05-30T16:59:59.816Z,19.40
2019-05-30T17:02:30.052Z,19.40
2019-05-30T17:05:00.199Z,19.30
2019-05-30T17:07:30.331Z,19.50
2019-05-30T17:10:00.489Z,19.50
2019-05-30T17:12:30.688Z,19.60
2019-05-30T17:15:00.874Z,19.80
2019-05-30T17:17:31.004Z,20.10
2019-05-30T17:20:01.243Z,20.20
2019-05-30T17:22:31.518Z,20.10
2019-05-30T17:25:01.891Z,20.20
2019-05-30T17:27:33.148Z,20.10
2019-05-30T17:30:05.024Z,20.00
2019-05-30T17:32:35.189Z,19.60
2019-05-30T17:35:07.865Z,19.40
2019-05-30T17:37:38.079Z,19.20
2019-05-30T17:40:10.878Z,19.10
2019-05-30T17:42:41.316Z,19.20
2019-05-30T17:45:23.125Z,19.10
2019-05-30T17:48:02.534Z,19.10
2019-05-30T17:50:25.753Z,18.90
2019-05-30T17:52:56.009Z,18.80
2019-05-30T17:55:26.086Z,18.80
2019-05-30T17:57:56.146Z,18.70
2019-05-30T18:00:26.738Z,18.50
2019-05-30T18:02:56.872Z,18.40
2019-05-30T18:05:27.021Z,18.40
2019-05-30T18:07:57.245Z,18.40
2019-05-30T18:10:27.489Z,18.40
2019-05-30T18:12:57.625Z,18.30
2019-05-30T18:15:29.498Z,18.30
2019-05-30T18:18:00.652Z,18.30
2019-05-30T18:20:31.633Z,18.30
2019-05-30T18:23:01.855Z,18.20
2019-05-30T18:25:32.000Z,18.20
2019-05-30T18:28:02.069Z,18.20
2019-05-30T18:30:43.585Z,18.20
2019-05-30T18:33:13.654Z,18.10
2019-05-30T18:35:43.821Z,18.00
2019-05-30T18:38:13.890Z,18.10
2019-05-30T18:40:44.044Z,18.00
2019-05-30T18:43:14.199Z,17.90
2019-05-30T18:45:45.228Z,17.80
2019-05-30T18:48:15.439Z,17.90
2019-05-30T18:50:45.580Z,17.80
2019-05-30T18:53:15.737Z,17.80
2019-05-30T18:55:45.949Z,17.80
2019-05-30T18:58:16.252Z,17.80
2019-05-30T19:00:46.424Z,17.70
2019-05-30T19:03:16.571Z,17.80
2019-05-30T19:05:48.583Z,17.80
2019-05-30T19:08:18.577Z,17.80
2019-05-30T19:10:48.883Z,17.80
2019-05-30T19:13:19.187Z,17.70
2019-05-30T19:15:49.492Z,17.70
2019-05-30T19:18:19.706Z,17.70
2019-05-30T19:20:49.871Z,17.50
2019-05-30T19:23:20.120Z,17.50
2019-05-30T19:25:50.343Z,17.50
2019-05-30T19:28:20.569Z,17.40
2019-05-30T19:30:50.795Z,17.30
2019-05-30T19:33:20.992Z,17.50
2019-05-30T19:35:51.693Z,17.50
2019-05-30T19:38:21.969Z,17.40
2019-05-30T19:40:52.129Z,17.30
2019-05-30T19:43:22.218Z,17.30
2019-05-30T19:45:52.313Z,17.20
2019-05-30T19:48:22.378Z,17.30
2019-05-30T19:50:52.529Z,17.30
2019-05-30T19:53:22.681Z,17.30
2019-05-30T19:55:52.761Z,17.30
2019-05-30T19:58:23.075Z,17.30
2019-05-30T20:00:58.435Z,17.20
2019-05-30T20:03:36.422Z,17.10
2019-05-30T20:05:57.883Z,17.10
2019-05-30T20:08:43.978Z,17.10
2019-05-30T20:11:00.947Z,17.20
2019-05-30T20:13:31.255Z,17.20
2019-05-30T20:16:01.372Z,17.20
2019-05-30T20:18:31.612Z,17.20
2019-05-30T20:21:01.634Z,17.20
2019-05-30T20:23:46.794Z,17.10
2019-05-30T20:26:03.550Z,17.10
2019-05-30T20:28:34.812Z,17.10
2019-05-30T20:31:05.108Z,17.10
2019-05-30T20:33:36.389Z,17.10
2019-05-30T20:36:06.854Z,17.00
2019-05-30T20:38:36.973Z,16.90
2019-05-30T20:41:07.037Z,17.00
2019-05-30T20:43:37.353Z,17.00
2019-05-30T20:46:22.421Z,16.90
2019-05-30T20:48:43.013Z,16.90
2019-05-30T20:51:21.125Z,17.00
2019-05-30T20:53:45.028Z,17.00
2019-05-30T20:56:15.259Z,17.00
2019-05-30T20:58:45.823Z,17.10
2019-05-30T21:01:15.960Z,17.00
2019-05-30T21:03:46.176Z,17.00
2019-05-30T21:06:16.520Z,17.00
2019-05-30T21:08:47.953Z,17.00
2019-05-30T21:11:19.444Z,17.00
2019-05-30T21:13:54.124Z,16.90
2019-05-30T21:16:24.313Z,16.90
2019-05-30T21:18:54.640Z,16.90
2019-05-30T21:21:24.718Z,16.90
2019-05-30T21:23:54.980Z,16.90
2019-05-30T21:26:25.204Z,17.00
2019-05-30T21:28:55.341Z,17.00
2019-05-30T21:31:25.357Z,17.10
2019-05-30T21:33:55.561Z,17.10
2019-05-30T21:36:26.960Z,16.90
2019-05-30T21:38:57.268Z,16.90
2019-05-30T21:41:27.437Z,17.00
2019-05-30T21:43:57.640Z,17.00
2019-05-30T21:46:27.779Z,16.90
2019-05-30T21:48:58.014Z,17.00
2019-05-30T21:51:28.257Z,17.00
2019-05-30T21:53:58.328Z,17.00
2019-05-30T21:56:28.479Z,16.80
2019-05-30T21:58:58.621Z,16.70
2019-05-30T22:01:31.222Z,16.80
2019-05-30T22:04:01.869Z,16.60
2019-05-30T22:06:32.005Z,16.50
2019-05-30T22:09:03.593Z,16.40
2019-05-30T22:11:34.190Z,16.30
2019-05-30T22:14:04.336Z,16.00
2019-05-30T22:16:34.493Z,16.00
2019-05-30T22:19:05.784Z,16.00
2019-05-30T22:21:36.001Z,15.90
2019-05-30T22:24:06.240Z,15.70
2019-05-30T22:26:36.457Z,15.60
2019-05-30T22:29:06.681Z,15.50
2019-05-30T22:31:36.816Z,15.60
2019-05-30T22:34:07.046Z,15.70
2019-05-30T22:36:37.116Z,15.70
2019-05-30T22:39:08.894Z,15.60
2019-05-30T22:41:39.364Z,15.60
2019-05-30T22:44:10.693Z,15.70
2019-05-30T22:46:40.696Z,15.60
2019-05-30T22:49:11.862Z,15.60
2019-05-30T22:51:43.101Z,15.50
2019-05-30T22:54:13.247Z,15.50
2019-05-30T22:56:43.404Z,15.40
2019-05-30T22:59:13.399Z,15.30
2019-05-30T23:01:44.804Z,15.30
2019-05-30T23:04:15.074Z,15.30
2019-05-30T23:06:46.271Z,15.20
2019-05-30T23:09:16.632Z,15.10
2019-05-30T23:11:47.684Z,15.10
2019-05-30T23:14:17.941Z,14.90
2019-05-30T23:16:48.247Z,14.90
2019-05-30T23:19:18.427Z,14.80
2019-05-30T23:21:48.784Z,14.80
2019-05-30T23:24:18.888Z,14.70
2019-05-30T23:26:49.411Z,14.70
2019-05-30T23:29:20.693Z,14.60
2019-05-30T23:31:51.927Z,14.60
2019-05-30T23:34:22.188Z,14.60
2019-05-30T23:36:52.451Z,14.40
2019-05-30T23:39:23.735Z,14.30
2019-05-30T23:41:55.096Z,14.30
2019-05-30T23:44:25.495Z,14.20
2019-05-30T23:46:55.657Z,14.20
2019-05-30T23:49:25.869Z,14.10
2019-05-30T23:51:56.232Z,14.10
2019-05-30T23:54:26.336Z,14.10
2019-05-30T23:56:58.587Z,14.00
2019-05-30T23:59:28.829Z,14.00
